Wainwright, AK (99782)

3:43 PM AKDT on May 25, 2017 (GMT -0800)
Wainwright | | Change Station

Elev 39 ft 70.63 °N, 159.98 °W | Updated 9 minutes ago

Snow
Snow
33 °F
Feels Like 23 °F
N
14
Wind Variable Wind from West

Today
High -- | Low -- °F
--% Chance of Precip.
Yesterday
High -- | Low -- °F
Precip. -- in
Pressure 29.63 in
Visibility 1.0 miles
Clouds Scattered Clouds 500 ft
Mostly Cloudy 1500 ft
Overcast 2100 ft
Windchill 23 °F
Dew Point 33 °F
Humidity 100%
Rainfall 0.01 in
Snow Depth Not available.
2:00 PM 2:00 PM
New Moon, 0% visible
SPECI PAWI 252334Z AUTO 27012KT 1SM -SN BR SCT005 BKN015 OVC021 01/01 A2963 RMK AO2 P0000 T00060006 TSNO $
Pressure 29.63 in
Visibility 1.0 miles
Clouds Scattered Clouds 500 ft
Mostly Cloudy 1500 ft
Overcast 2100 ft
Windchill 23 °F
Dew Point 33 °F
Humidity 100%
Rainfall 0.01 in
Snow Depth Not available.
2:00 PM 2:00 PM
New Moon, 0% visible
SPECI PAWI 252334Z AUTO 27012KT 1SM -SN BR SCT005 BKN015 OVC021 01/01 A2963 RMK AO2 P0000 T00060006 TSNO $

Get Severe Weather Alerts

Thanks for signing up!

Be on the lookout for a verification email in your inbox.

You'll start receiving the daily forecast at 6 AM.

×

10-Day Weather Forecast

Almanac

Astronomy

May. 25, 2017 Rise Set
Actual Time
Civil Twilight
Nautical Twilight
Astronomical Twilight
Moon
Length of Visible Light
Length of Day
Tomorrow will be .
, % of the Moon is Illuminated

Today's Extremes

State Highs State Lows

Community

WunderPhotos

Category 6

Welcome to Category 6. This is the collective home for Weather Underground's featured writeups by Dr. Jeff Masters (right), Bob Henson (left), Chris Burt, and other regular contributors.

Nearby

Air Quality

  Air Quality AQ Index Pollutant
Not available.

Snow Depth

Station Depth Elevation

Earthquake Activity

City Distance Mag. Time & Date
Minimum magnitude displayed is 2.5.

Coastal Water Temperatures

Place Temperature

Stations

Nearby Weather Stations

Station Location Temp. Windchill Dew Point Humidity Wind Precip. Elev Updated Type
                   

Watches & Warnings

There are currently no watches in effect.